createdAt,value
2018-04-27T00:02:08.757Z,7.90
2018-04-27T00:07:03.181Z,7.90
2018-04-27T00:11:57.643Z,7.80
2018-04-27T00:16:52.069Z,7.70
2018-04-27T00:21:47.422Z,7.70
2018-04-27T00:26:41.871Z,7.60
2018-04-27T00:31:36.284Z,7.60
2018-04-27T00:36:30.838Z,7.60
2018-04-27T00:41:25.560Z,7.50
2018-04-27T00:46:20.142Z,7.40
2018-04-27T00:51:14.597Z,7.40
2018-04-27T00:56:09.000Z,7.40
2018-04-27T01:01:03.432Z,7.30
2018-04-27T01:05:58.634Z,7.30
2018-04-27T01:10:53.054Z,7.30
2018-04-27T01:15:48.311Z,7.30
2018-04-27T01:20:42.729Z,7.30
2018-04-27T01:25:37.225Z,7.30
2018-04-27T01:30:31.686Z,7.30
2018-04-27T01:35:26.863Z,7.20
2018-04-27T01:40:21.678Z,7.20
2018-04-27T01:45:16.080Z,7.20
2018-04-27T01:50:11.617Z,7.10
2018-04-27T01:55:06.140Z,7.10
2018-04-27T02:00:01.763Z,7.00
2018-04-27T02:04:56.744Z,7.00
2018-04-27T02:09:51.177Z,7.00
2018-04-27T02:14:45.548Z,6.90
2018-04-27T02:19:39.903Z,6.90
2018-04-27T02:24:34.296Z,6.90
2018-04-27T02:29:28.875Z,6.80
2018-04-27T02:34:23.220Z,6.80
2018-04-27T02:39:17.582Z,6.90
2018-04-27T02:44:11.960Z,6.90
2018-04-27T02:49:07.105Z,7.10
2018-04-27T02:54:01.514Z,7.10
2018-04-27T02:58:55.960Z,7.20
2018-04-27T03:03:51.103Z,7.40
2018-04-27T03:08:45.468Z,7.40
2018-04-27T03:13:39.836Z,7.50
2018-04-27T03:18:33.984Z,7.40
2018-04-27T03:23:28.369Z,7.50
2018-04-27T03:28:22.985Z,7.60
2018-04-27T03:33:17.726Z,7.60
2018-04-27T03:38:12.843Z,7.60
2018-04-27T03:43:08.147Z,7.60
2018-04-27T03:48:02.720Z,7.60
2018-04-27T03:52:57.070Z,7.60
2018-04-27T03:57:52.184Z,7.60
2018-04-27T04:03:03.686Z,7.60
2018-04-27T04:07:58.843Z,7.50
2018-04-27T04:12:53.231Z,7.50
2018-04-27T04:17:48.370Z,7.30
2018-04-27T04:22:42.793Z,7.30
2018-04-27T04:27:37.197Z,7.20
2018-04-27T04:32:32.025Z,7.20
2018-04-27T04:37:27.002Z,7.10
2018-04-27T04:42:22.430Z,7.20
2018-04-27T04:47:16.865Z,7.10
2018-04-27T04:52:11.051Z,7.10
2018-04-27T04:57:05.510Z,7.20
2018-04-27T05:02:00.677Z,7.20
2018-04-27T05:06:55.019Z,7.20
2018-04-27T05:11:49.384Z,7.30
2018-04-27T05:16:43.725Z,7.40
2018-04-27T05:21:39.595Z,7.90
2018-04-27T05:26:34.118Z,7.90
2018-04-27T05:31:28.231Z,8.30
2018-04-27T05:36:22.583Z,8.60
2018-04-27T05:41:18.873Z,9.60
2018-04-27T05:46:13.000Z,9.60
2018-04-27T05:51:06.688Z,10.80
2018-04-27T05:56:00.990Z,12.20
2018-04-27T06:00:55.365Z,12.50
2018-04-27T06:05:50.050Z,12.70
2018-04-27T06:10:44.419Z,12.60
2018-04-27T06:15:39.851Z,13.80
2018-04-27T06:20:35.180Z,14.70
2018-04-27T06:25:30.527Z,15.00
2018-04-27T06:30:25.114Z,14.90
2018-04-27T06:35:20.222Z,19.00
2018-04-27T06:40:14.585Z,18.90
2018-04-27T06:45:09.218Z,18.60
2018-04-27T06:50:03.659Z,18.40
2018-04-27T06:54:58.809Z,16.90
2018-04-27T06:59:53.202Z,16.80
2018-04-27T07:04:47.557Z,16.70
2018-04-27T07:09:42.650Z,17.10
2018-04-27T07:14:37.036Z,17.10
2018-04-27T07:19:31.466Z,16.60
2018-04-27T07:24:25.903Z,17.30
2018-04-27T07:29:21.269Z,17.60
2018-04-27T07:34:15.739Z,17.60
2018-04-27T07:39:10.472Z,18.70
2018-04-27T07:44:04.867Z,20.70
2018-04-27T07:48:59.297Z,22.00
2018-04-27T07:53:53.672Z,22.40
2018-04-27T07:58:48.027Z,24.30
2018-04-27T08:03:42.597Z,26.30
2018-04-27T08:08:36.960Z,28.20
2018-04-27T08:13:32.111Z,27.60
2018-04-27T08:18:26.397Z,27.50
2018-04-27T08:23:21.530Z,27.00
2018-04-27T08:28:15.940Z,27.00
2018-04-27T08:33:10.438Z,27.10
2018-04-27T08:38:05.019Z,27.10
2018-04-27T08:43:00.171Z,28.50
2018-04-27T08:47:54.525Z,28.50
2018-04-27T08:52:49.233Z,28.50
2018-04-27T08:57:43.370Z,29.60
2018-04-27T09:02:37.817Z,32.20
2018-04-27T09:07:33.497Z,32.10
2018-04-27T09:12:30.012Z,32.70
2018-04-27T09:17:24.597Z,32.70
2018-04-27T09:22:19.871Z,33.10
2018-04-27T09:27:15.141Z,33.00
2018-04-27T09:32:10.594Z,31.70
2018-04-27T09:37:05.056Z,31.60
2018-04-27T09:41:59.812Z,31.30
2018-04-27T09:46:54.151Z,28.80
2018-04-27T09:51:49.308Z,24.70
2018-04-27T09:56:43.999Z,24.60
2018-04-27T10:01:38.480Z,23.30
2018-04-27T10:06:33.846Z,22.50
2018-04-27T10:11:28.463Z,22.40
2018-04-27T10:16:22.964Z,21.30
2018-04-27T10:21:17.325Z,20.70
2018-04-27T10:26:11.956Z,20.10
2018-04-27T10:31:06.682Z,20.10
2018-04-27T10:36:01.070Z,20.00
2018-04-27T10:40:56.450Z,20.00
2018-04-27T10:45:50.810Z,20.00
2018-04-27T10:50:45.295Z,20.50
2018-04-27T10:55:40.361Z,20.60
2018-04-27T11:00:36.377Z,20.20
2018-04-27T11:05:30.237Z,20.20
2018-04-27T11:10:24.653Z,20.30
2018-04-27T11:15:19.970Z,20.60
2018-04-27T11:20:14.463Z,20.60
2018-04-27T11:25:09.713Z,20.80
2018-04-27T11:30:04.301Z,20.80
2018-04-27T11:34:59.520Z,20.20
2018-04-27T11:39:54.701Z,20.00
2018-04-27T11:44:49.644Z,20.00
2018-04-27T11:49:44.917Z,19.40
2018-04-27T11:54:39.282Z,19.40
2018-04-27T11:59:33.789Z,19.30
2018-04-27T12:04:28.717Z,19.30
2018-04-27T12:09:23.151Z,19.30
2018-04-27T12:14:17.592Z,19.40
2018-04-27T12:19:12.056Z,19.00
2018-04-27T12:24:06.664Z,19.00
2018-04-27T12:29:01.618Z,18.90
2018-04-27T12:33:56.357Z,18.50
2018-04-27T12:38:51.598Z,18.20
2018-04-27T12:43:46.170Z,18.10
2018-04-27T12:48:41.196Z,18.40
2018-04-27T12:53:36.312Z,18.50
2018-04-27T12:58:31.613Z,18.50
2018-04-27T13:03:26.085Z,18.50
2018-04-27T13:08:20.210Z,18.30
2018-04-27T13:13:14.589Z,18.60
2018-04-27T13:18:08.937Z,18.70
2018-04-27T13:23:03.482Z,18.80
2018-04-27T13:27:57.850Z,19.10
2018-04-27T13:32:53.131Z,19.20
2018-04-27T13:37:47.633Z,19.20
2018-04-27T13:42:42.014Z,19.00
2018-04-27T13:47:36.571Z,18.90
2018-04-27T13:52:31.065Z,18.90
2018-04-27T13:57:25.448Z,18.70
2018-04-27T14:02:20.178Z,18.60
2018-04-27T14:07:13.959Z,18.70
2018-04-27T14:12:08.371Z,18.80
2018-04-27T14:17:02.819Z,18.80
2018-04-27T14:21:57.186Z,18.80
2018-04-27T14:26:51.612Z,18.70
2018-04-27T14:31:46.981Z,18.90
2018-04-27T14:36:41.353Z,18.90
2018-04-27T14:41:35.957Z,19.00
2018-04-27T14:46:30.585Z,19.00
2018-04-27T14:51:25.456Z,19.00
2018-04-27T14:56:20.997Z,19.00
2018-04-27T15:01:16.263Z,19.10
2018-04-27T15:06:12.835Z,19.00
2018-04-27T15:11:07.054Z,19.10
2018-04-27T15:16:01.548Z,19.30
2018-04-27T15:20:55.910Z,19.30
2018-04-27T15:25:50.258Z,19.40
2018-04-27T15:30:44.631Z,19.50
2018-04-27T15:35:38.777Z,19.50
2018-04-27T15:40:33.304Z,19.50
2018-04-27T15:45:28.437Z,19.70
2018-04-27T15:50:22.776Z,19.70
2018-04-27T15:55:17.211Z,19.50
2018-04-27T16:00:12.330Z,19.30
2018-04-27T16:05:06.841Z,19.30
2018-04-27T16:10:02.216Z,19.30
2018-04-27T16:14:56.796Z,19.30
2018-04-27T16:19:53.643Z,19.20
2018-04-27T16:24:48.779Z,19.10
2018-04-27T16:29:43.136Z,19.10
2018-04-27T16:34:37.491Z,18.90
2018-04-27T16:39:31.844Z,18.80
2018-04-27T16:44:26.201Z,18.80
2018-04-27T16:49:20.574Z,18.80
2018-04-27T16:54:15.701Z,18.70
2018-04-27T16:59:10.820Z,18.70
2018-04-27T17:04:05.986Z,18.70
2018-04-27T17:09:00.474Z,18.70
2018-04-27T17:13:55.009Z,18.70
2018-04-27T17:18:49.516Z,18.60
2018-04-27T17:23:43.893Z,18.70
2018-04-27T17:28:38.515Z,18.70
2018-04-27T17:33:33.012Z,18.70
2018-04-27T17:38:27.361Z,18.80
2018-04-27T17:43:21.760Z,18.90
2018-04-27T17:48:16.298Z,19.00
2018-04-27T17:53:10.674Z,19.10
2018-04-27T17:58:05.779Z,19.10
2018-04-27T18:03:00.380Z,19.10
2018-04-27T18:07:54.759Z,19.00
2018-04-27T18:12:49.129Z,18.90
2018-04-27T18:17:44.262Z,18.40
2018-04-27T18:22:38.846Z,18.40
2018-04-27T18:27:34.118Z,18.00
2018-04-27T18:32:28.507Z,18.00
2018-04-27T18:37:22.924Z,17.80
2018-04-27T18:42:17.269Z,17.50
2018-04-27T18:47:12.421Z,17.40
2018-04-27T18:52:06.571Z,17.40
2018-04-27T18:57:00.723Z,17.20
2018-04-27T19:01:54.823Z,17.10
2018-04-27T19:06:49.234Z,16.90
2018-04-27T19:11:42.861Z,16.80
2018-04-27T19:16:36.708Z,16.70
2018-04-27T19:21:31.104Z,16.70
2018-04-27T19:26:25.773Z,16.60
2018-04-27T19:31:20.411Z,16.60
2018-04-27T19:36:14.532Z,16.60
2018-04-27T19:41:08.909Z,16.60
2018-04-27T19:46:03.332Z,16.70
2018-04-27T19:50:57.816Z,16.70
2018-04-27T19:55:52.195Z,16.70
2018-04-27T20:00:46.845Z,16.80
2018-04-27T20:05:48.867Z,16.80
2018-04-27T20:10:44.889Z,16.80
2018-04-27T20:15:44.172Z,16.70
2018-04-27T20:20:37.784Z,16.60
2018-04-27T20:25:35.471Z,16.50
2018-04-27T20:30:29.674Z,16.30
2018-04-27T20:35:23.103Z,16.30
2018-04-27T20:40:16.762Z,16.00
2018-04-27T20:45:13.687Z,15.80
2018-04-27T20:50:07.422Z,15.70
2018-04-27T20:55:01.222Z,15.30
2018-04-27T20:59:56.312Z,15.10
2018-04-27T21:04:50.823Z,15.10
2018-04-27T21:09:45.168Z,15.10
2018-04-27T21:14:39.540Z,15.20
2018-04-27T21:19:34.652Z,15.30
2018-04-27T21:24:28.281Z,15.30
2018-04-27T21:29:22.706Z,15.30
2018-04-27T21:34:17.047Z,15.30
2018-04-27T21:39:15.368Z,15.40
2018-04-27T21:44:15.937Z,15.50
2018-04-27T21:49:25.568Z,15.50
2018-04-27T21:54:21.831Z,15.60
2018-04-27T21:59:22.062Z,15.60
2018-04-27T22:04:16.239Z,15.50
2018-04-27T22:09:10.623Z,15.50
2018-04-27T22:14:05.145Z,15.20
2018-04-27T22:18:58.556Z,14.90
2018-04-27T22:24:05.325Z,14.60
2018-04-27T22:29:00.767Z,14.60
2018-04-27T22:33:56.823Z,14.50
2018-04-27T22:54:53.470Z,13.90
2018-04-27T22:59:51.208Z,13.90
2018-04-27T23:04:45.010Z,13.90
2018-04-27T23:09:39.201Z,13.90
2018-04-27T23:14:35.504Z,13.70
2018-04-27T23:19:37.305Z,13.70
2018-04-27T23:24:32.528Z,13.70
2018-04-27T23:29:26.483Z,13.60
2018-04-27T23:34:36.249Z,13.50
2018-04-27T23:39:31.435Z,13.40
2018-04-27T23:44:25.319Z,13.40
2018-04-27T23:49:21.244Z,13.40
2018-04-27T23:54:15.243Z,13.40
2018-04-27T23:59:09.582Z,13.40
